createdAt,value
2022-11-01T08:13:23.786Z,707
2022-11-01T08:15:06.042Z,705.7
2022-11-01T08:16:49.718Z,705.8
2022-11-01T08:18:33.503Z,701.6
2022-11-01T08:20:17.190Z,699.2
2022-11-01T08:22:00.797Z,695.4
2022-11-01T08:23:44.491Z,696.5
2022-11-01T08:25:28.242Z,694.9
2022-11-01T08:27:11.906Z,693.1
2022-11-01T08:28:55.702Z,694.1
2022-11-01T08:30:39.416Z,693
2022-11-01T08:32:23.040Z,691.8
2022-11-01T08:34:06.726Z,692.4
2022-11-01T08:35:50.493Z,689.8
2022-11-01T08:37:34.224Z,690.4
2022-11-01T08:39:17.934Z,694.5
2022-11-01T08:41:01.618Z,697.9
2022-11-01T08:42:45.201Z,699
2022-11-01T08:44:28.908Z,702
2022-11-01T08:46:12.625Z,698.8
2022-11-01T08:47:56.312Z,697.6
2022-11-01T08:49:40.019Z,696.1
2022-11-01T08:51:23.724Z,698.6
2022-11-01T08:53:07.418Z,698.9
2022-11-01T08:56:34.857Z,703.2
2022-11-01T08:58:18.536Z,705.8
2022-11-01T09:00:02.272Z,706.4
2022-11-01T09:01:45.923Z,710.9
2022-11-01T09:03:29.681Z,711
2022-11-01T09:05:13.426Z,709.1
2022-11-01T09:06:57.077Z,709.5
2022-11-01T09:08:40.781Z,708.5
2022-11-01T09:10:24.446Z,706.5
2022-11-01T09:12:08.165Z,707.1
2022-11-01T09:13:51.863Z,709.2
2022-11-01T09:15:35.563Z,709.3
2022-11-01T09:17:19.264Z,708.6
2022-11-01T09:19:02.962Z,710.3
2022-11-01T09:20:46.668Z,711.5
2022-11-01T09:22:30.442Z,716.5
2022-11-01T09:24:14.131Z,721.6
2022-11-01T09:25:57.794Z,727.2
2022-11-01T09:27:41.471Z,739.7
2022-11-01T09:29:25.197Z,752.8
2022-11-01T09:31:08.977Z,759.3
2022-11-01T09:32:52.635Z,764.4
2022-11-01T09:34:36.255Z,781.3
2022-11-01T09:36:19.985Z,790.1
2022-11-01T09:38:03.688Z,795.4
2022-11-01T09:39:47.405Z,809.8
2022-11-01T09:41:31.084Z,856.5
2022-11-01T09:43:14.780Z,877.3
2022-11-01T09:44:58.481Z,891.5
2022-11-01T09:46:42.190Z,892.7
2022-11-01T09:48:25.870Z,897.5
2022-11-01T09:50:09.579Z,899
2022-11-01T09:51:53.292Z,901.1
2022-11-01T09:53:36.986Z,913.3
2022-11-01T09:55:20.670Z,931.1
2022-11-01T09:57:04.390Z,941.5
2022-11-01T09:58:48.106Z,950
2022-11-01T10:00:31.866Z,953
2022-11-01T10:02:15.500Z,956.5
2022-11-01T10:03:59.234Z,961.7
2022-11-01T10:05:42.903Z,963.1
2022-11-01T10:07:26.631Z,961.1
2022-11-01T10:09:10.320Z,956.9
2022-11-01T10:10:54.024Z,951.7
2022-11-01T10:12:37.718Z,943.4
2022-11-01T10:14:21.415Z,935.6
2022-11-01T10:16:05.146Z,933
2022-11-01T10:17:48.806Z,933
2022-11-01T10:19:32.597Z,932.2
2022-11-01T10:21:16.210Z,931
2022-11-01T10:22:59.911Z,930.8
2022-11-01T10:24:43.700Z,930.8
2022-11-01T10:26:27.353Z,934
2022-11-01T10:28:11.078Z,935.9
2022-11-01T10:29:54.717Z,939.7
2022-11-01T10:31:38.450Z,942.2
2022-11-01T10:33:22.137Z,945.4
2022-11-01T10:35:05.828Z,948.1
2022-11-01T10:36:49.590Z,946.8
2022-11-01T10:38:33.242Z,948.2
2022-11-01T10:40:16.988Z,949.7
2022-11-01T10:42:00.682Z,951.8
2022-11-01T10:43:44.323Z,951.4
2022-11-01T10:45:28.066Z,954.8
2022-11-01T10:47:11.805Z,957.9
2022-11-01T10:48:55.524Z,970.7
2022-11-01T10:50:39.216Z,1020.9
2022-11-01T10:52:22.842Z,997.2
2022-11-01T10:54:06.671Z,994
2022-11-01T10:55:50.305Z,999.9
2022-11-01T10:57:33.961Z,1004
2022-11-01T10:59:17.676Z,1004.3
2022-11-01T11:01:01.499Z,1007.1
2022-11-01T11:02:45.200Z,1010
2022-11-01T11:04:28.908Z,1016.2
2022-11-01T11:06:12.453Z,1019.7
2022-11-01T11:07:56.254Z,1019.4
2022-11-01T11:09:39.952Z,1020.8
2022-11-01T11:11:23.745Z,1023
2022-11-01T11:13:07.408Z,1029.1
2022-11-01T11:14:51.141Z,1032.9
2022-11-01T11:16:34.815Z,1037.2
2022-11-01T11:18:18.540Z,1036.5
2022-11-01T11:20:02.274Z,1042.2
2022-11-01T11:21:45.843Z,1045.1
2022-11-01T11:23:29.599Z,1046.6
2022-11-01T11:25:13.264Z,1049.9
2022-11-01T11:26:56.924Z,1050.6
2022-11-01T11:28:40.575Z,1053.2
2022-11-01T11:30:24.434Z,1054.2
2022-11-01T11:32:08.128Z,1057
2022-11-01T11:33:51.814Z,1061.5
2022-11-01T11:35:35.546Z,1065.6
2022-11-01T11:37:19.233Z,1071.5
2022-11-01T11:39:02.904Z,1074.6
2022-11-01T11:40:46.649Z,1078.3
2022-11-01T11:42:30.344Z,1078.8
2022-11-01T11:44:14.060Z,1081.1
2022-11-01T11:45:57.729Z,1079.4
2022-11-01T11:47:41.414Z,1083
2022-11-01T11:49:25.052Z,1094.1
2022-11-01T11:51:08.731Z,1107.5
2022-11-01T11:52:52.472Z,1115.1
2022-11-01T11:54:36.148Z,1122
2022-11-01T11:56:19.828Z,1127.9
2022-11-01T11:58:03.653Z,1128.9
2022-11-01T11:59:47.375Z,1127.8
2022-11-01T12:01:30.946Z,1130.8
2022-11-01T12:03:14.757Z,1134.8
2022-11-01T12:04:58.353Z,1139.4
2022-11-01T12:06:42.083Z,1144.5
2022-11-01T12:08:25.743Z,1148.8
2022-11-01T12:10:09.543Z,1152.1
2022-11-01T12:11:53.200Z,1154.6
2022-11-01T12:13:36.853Z,1156.3
2022-11-01T12:15:20.605Z,1158.8
2022-11-01T12:17:04.292Z,1164.7
2022-11-01T12:18:48.073Z,1169.6
2022-11-01T12:20:31.654Z,1175.9
2022-11-01T12:22:15.505Z,1186.4
2022-11-01T12:23:59.093Z,1196.6
2022-11-01T12:25:42.894Z,1199.6
2022-11-01T12:27:26.559Z,1204.4
2022-11-01T12:29:10.218Z,1208.1
2022-11-01T12:30:53.980Z,1215.3
2022-11-01T12:32:37.582Z,1231.4
2022-11-01T12:34:21.298Z,1250.7
2022-11-01T12:36:05.053Z,1259.6
2022-11-01T12:39:32.507Z,1267.5
2022-11-01T12:41:16.243Z,1265.8
2022-11-01T12:42:59.835Z,1263.4
2022-11-01T12:44:43.550Z,1265.1
2022-11-01T12:46:27.243Z,1261.3
2022-11-01T12:48:10.977Z,1255.9
2022-11-01T12:49:54.731Z,1251.6
2022-11-01T12:51:38.399Z,1253.2
2022-11-01T12:53:22.149Z,1261.5
2022-11-01T12:55:05.785Z,1270.1
2022-11-01T12:56:49.559Z,1279.1
2022-11-01T12:58:33.187Z,1287.9
2022-11-01T13:00:16.944Z,1294.2
2022-11-01T13:02:00.550Z,1301.7
2022-11-01T13:03:44.334Z,1306.5
2022-11-01T13:05:28.128Z,1305.7
2022-11-01T13:07:11.680Z,1312.4
2022-11-01T13:08:55.403Z,1318.3
2022-11-01T13:10:39.152Z,1320.9
2022-11-01T13:12:22.873Z,1329.3
2022-11-01T13:14:06.501Z,1335.2
2022-11-01T13:15:50.192Z,1343
2022-11-01T13:21:01.357Z,1359.2
2022-11-01T13:22:44.972Z,1362.4
2022-11-01T13:24:28.769Z,1367.2
2022-11-01T13:26:12.365Z,1360.8
2022-11-01T13:27:56.149Z,1362.9
2022-11-01T13:29:39.760Z,1370.7
2022-11-01T13:31:23.605Z,1372.1
2022-11-01T13:33:07.282Z,1372
2022-11-01T13:34:50.957Z,1369.7
2022-11-01T13:36:34.683Z,1372.2
2022-11-01T13:38:18.313Z,1378.2
2022-11-01T13:40:02.086Z,1380.6
2022-11-01T13:41:45.713Z,1386.4
2022-11-01T13:43:29.424Z,1389.2
2022-11-01T13:45:13.074Z,1394.5
2022-11-01T13:46:56.859Z,1400.6
2022-11-01T13:48:40.526Z,1403.3
2022-11-01T13:50:24.278Z,1402.2
2022-11-01T13:52:07.968Z,1401.6
2022-11-01T13:53:51.579Z,1405.4
2022-11-01T13:55:35.307Z,1406.3
2022-11-01T13:57:18.992Z,1404.8
2022-11-01T13:59:02.796Z,1401.9
2022-11-01T14:00:46.486Z,1403.7
2022-11-01T14:02:30.104Z,1403.8
2022-11-01T14:04:13.887Z,1404.1
2022-11-01T14:05:57.492Z,1403.5
2022-11-01T14:07:41.218Z,1404.6
2022-11-01T14:09:24.959Z,1404.4
2022-11-01T14:11:08.652Z,1401.4
2022-11-01T14:12:52.296Z,1397.8
2022-11-01T14:14:36.027Z,1399.8
2022-11-01T14:16:19.716Z,1404.1
2022-11-01T14:18:03.434Z,1403.6
2022-11-01T14:19:47.147Z,1401.6
2022-11-01T14:21:30.960Z,1396.6
2022-11-01T14:23:14.528Z,1392.1
2022-11-01T14:24:58.255Z,1393
2022-11-01T14:26:42.040Z,1400.4
2022-11-01T14:28:25.633Z,1406.1
2022-11-01T14:30:09.425Z,1400.7
2022-11-01T14:31:53.068Z,1391.1
2022-11-01T14:33:36.807Z,1386.2
2022-11-01T14:35:20.556Z,1378.2
2022-11-01T14:37:04.171Z,1366.6
2022-11-01T14:38:47.901Z,1375.1
2022-11-01T14:40:31.556Z,1409.5
2022-11-01T14:42:15.260Z,1407.6
2022-11-01T14:43:59.020Z,1406
2022-11-01T14:45:42.679Z,1406
2022-11-01T14:47:26.340Z,1401.3
2022-11-01T14:49:10.115Z,1399.1
2022-11-01T14:50:53.759Z,1393.6
2022-11-01T14:52:37.552Z,1388.7
2022-11-01T14:54:21.170Z,1384
2022-11-01T14:56:04.918Z,1377.3
2022-11-01T14:57:48.666Z,1369.7
2022-11-01T14:59:32.305Z,1366.7
2022-11-01T15:01:16.053Z,1368.3
2022-11-01T15:02:59.727Z,1366.8
2022-11-01T15:04:43.423Z,1369.9
2022-11-01T15:06:27.106Z,1366.9
2022-11-01T15:08:10.849Z,1360.9
2022-11-01T15:09:54.502Z,1361.3
2022-11-01T15:11:38.234Z,1364.1
2022-11-01T15:13:21.895Z,1362.5
2022-11-01T15:15:05.587Z,1363
2022-11-01T15:16:49.289Z,1364.9
2022-11-01T15:18:32.992Z,1366.6
2022-11-01T15:20:16.685Z,1366.7
2022-11-01T15:22:00.463Z,1372.8
2022-11-01T15:23:44.159Z,1047.3
2022-11-01T15:25:27.822Z,779.4
2022-11-01T15:27:11.502Z,824.9
2022-11-01T15:28:55.213Z,1081.3
2022-11-01T15:30:38.922Z,1070.4
2022-11-01T15:32:22.605Z,1071.5
2022-11-01T15:34:06.310Z,1079.4
2022-11-01T15:35:49.994Z,1093.9
2022-11-01T15:37:33.753Z,1104.5
2022-11-01T15:39:17.396Z,1114.1
2022-11-01T15:41:01.107Z,1120.8
2022-11-01T15:42:44.852Z,1135.8
2022-11-01T15:44:28.561Z,1150.5
2022-11-01T15:46:12.262Z,1159.4
2022-11-01T15:47:55.902Z,1167.3
2022-11-01T15:49:39.682Z,1170
2022-11-01T15:51:23.347Z,1170.6
2022-11-01T15:53:07.008Z,1169.9
2022-11-01T15:54:50.719Z,1165.1
2022-11-01T15:56:34.422Z,1166.4
2022-11-01T15:58:18.138Z,1170
2022-11-01T16:00:01.928Z,1175.3
2022-11-01T16:01:45.522Z,1177.5
2022-11-01T16:03:29.220Z,1178.8
2022-11-01T16:05:12.912Z,1180.1
2022-11-01T16:06:56.648Z,1180.2
2022-11-01T16:08:40.345Z,1176
2022-11-01T16:10:24.026Z,1175.5
2022-11-01T16:12:07.759Z,1169.3
2022-11-01T16:13:51.418Z,1162.6
2022-11-01T16:15:35.163Z,1158.3
2022-11-01T16:17:18.854Z,1150.5
2022-11-01T16:19:02.524Z,1146.3
2022-11-01T16:20:46.271Z,1140.8
2022-11-01T16:22:29.964Z,1135.5
2022-11-01T16:24:13.670Z,1134
2022-11-01T16:25:57.345Z,1132.9
2022-11-01T16:27:41.045Z,1130
2022-11-01T16:29:24.741Z,1126.1
2022-11-01T16:31:08.452Z,1125.5
2022-11-01T16:32:52.181Z,1123.2
2022-11-01T16:34:35.860Z,1119.7
2022-11-01T16:36:19.567Z,1114
2022-11-01T16:38:03.271Z,1109.3
2022-11-01T16:39:47.079Z,1106.8
2022-11-01T16:41:30.773Z,1103.6
2022-11-01T16:43:14.441Z,1097.7
2022-11-01T16:44:58.085Z,1094
2022-11-01T16:46:41.807Z,1094.3
2022-11-01T16:48:25.486Z,1092.5
2022-11-01T16:50:09.181Z,1091.1
2022-11-01T16:51:52.913Z,1090.9
2022-11-01T16:53:36.616Z,1087.6
2022-11-01T16:55:20.355Z,1082.5
2022-11-01T16:57:04.065Z,1078
2022-11-01T16:58:47.701Z,1076.9
2022-11-01T17:00:31.407Z,1074.4
2022-11-01T17:02:15.137Z,1069.2
2022-11-01T17:03:58.799Z,1067.5
2022-11-01T17:05:42.508Z,1069.1
2022-11-01T17:07:26.261Z,1064.9
2022-11-01T17:09:09.916Z,1061.8
2022-11-01T17:10:53.688Z,1058
2022-11-01T17:12:37.369Z,1052.3
2022-11-01T17:14:21.052Z,1048.7
2022-11-01T17:16:04.721Z,1045.7
2022-11-01T17:17:48.419Z,1044.3
2022-11-01T17:19:32.137Z,1041.1
2022-11-01T17:21:15.909Z,1038.8
2022-11-01T17:22:59.580Z,1035.6
2022-11-01T17:24:43.289Z,1033.6
2022-11-01T17:26:26.954Z,1025.1
2022-11-01T17:28:10.648Z,1024
2022-11-01T17:29:54.397Z,1020.3
2022-11-01T17:31:38.049Z,1018.5
2022-11-01T17:33:21.784Z,1015.5
2022-11-01T17:35:05.455Z,1010.4
2022-11-01T17:36:49.147Z,1010.4
2022-11-01T17:38:32.879Z,1009.6
2022-11-01T17:40:16.566Z,1005.4
2022-11-01T17:42:00.285Z,1000.6
2022-11-01T17:43:43.997Z,996.3
2022-11-01T17:45:27.681Z,995.8
2022-11-01T17:47:11.360Z,993.8
2022-11-01T17:48:55.056Z,987.6
2022-11-01T17:50:38.823Z,986.6
2022-11-01T17:52:22.485Z,983.6
2022-11-01T17:54:06.165Z,982.8
2022-11-01T17:55:49.932Z,982.8
2022-11-01T17:57:33.578Z,983.1
2022-11-01T17:59:17.356Z,983.6
2022-11-01T18:01:00.980Z,985.7
2022-11-01T18:02:44.731Z,981.6
2022-11-01T18:04:28.393Z,975
2022-11-01T18:06:12.090Z,970.1
2022-11-01T18:07:55.789Z,970
2022-11-01T18:09:39.482Z,965.5
2022-11-01T18:11:23.209Z,959
2022-11-01T18:13:06.988Z,954.9
2022-11-01T18:14:50.627Z,949.8
2022-11-01T18:16:34.385Z,946
2022-11-01T18:18:18.044Z,946.5
2022-11-01T18:20:01.781Z,945.1
2022-11-01T18:21:45.452Z,944.2
2022-11-01T18:23:29.200Z,942.1
2022-11-01T18:25:12.895Z,938.9
2022-11-01T18:26:56.517Z,937.2
2022-11-01T18:28:40.243Z,934.9
2022-11-01T18:30:23.998Z,931.5
2022-11-01T18:32:07.634Z,929
2022-11-01T18:33:51.437Z,926.9
2022-11-01T18:35:35.165Z,925.2
2022-11-01T18:37:18.752Z,923.3
2022-11-01T18:39:02.536Z,919.6
2022-11-01T18:40:46.179Z,920
2022-11-01T18:42:29.937Z,921.1
2022-11-01T18:44:13.617Z,915.5
2022-11-01T18:45:57.235Z,910.9
2022-11-01T18:47:40.931Z,908.2
2022-11-01T18:49:24.664Z,905
2022-11-01T18:51:08.426Z,899.3
2022-11-01T18:52:52.055Z,896.7
2022-11-01T18:54:35.748Z,896.5
2022-11-01T18:56:19.487Z,898.4
2022-11-01T18:58:03.180Z,894.7
2022-11-01T18:59:46.954Z,893.6
2022-11-01T19:01:30.655Z,890.2
2022-11-01T19:03:14.257Z,883.8
2022-11-01T19:04:57.955Z,879.9
2022-11-01T19:08:25.363Z,879.5
2022-11-01T19:10:09.173Z,886.1
2022-11-01T19:11:52.862Z,896.2
2022-11-01T19:13:36.474Z,902.5
2022-11-01T19:15:20.180Z,909
2022-11-01T19:17:03.956Z,911.1
2022-11-01T19:18:47.699Z,911.2
2022-11-01T19:20:31.333Z,906.5
2022-11-01T19:22:15.036Z,905
2022-11-01T19:23:58.758Z,907.7
2022-11-01T19:25:42.375Z,908.9
2022-11-01T19:27:26.161Z,906.6
2022-11-01T19:29:09.838Z,905.1
2022-11-01T19:30:53.566Z,909.9
2022-11-01T19:32:37.210Z,914.3
2022-11-01T19:34:20.901Z,918.3
2022-11-01T19:36:04.593Z,919.9
2022-11-01T19:37:48.334Z,923.5
2022-11-01T19:39:32.129Z,923.1
2022-11-01T19:41:15.750Z,921.6
2022-11-01T19:42:59.488Z,920.8
2022-11-01T19:44:43.158Z,919
2022-11-01T19:46:26.890Z,920.3
2022-11-01T19:48:10.495Z,922.7
2022-11-01T19:49:54.197Z,929.8
2022-11-01T19:51:38.026Z,935.7
2022-11-01T19:53:21.620Z,936.6
2022-11-01T19:55:05.376Z,943.4
2022-11-01T19:56:49.039Z,946.5
2022-11-01T19:58:32.793Z,945.7
2022-11-01T20:00:16.419Z,950
2022-11-01T20:02:00.176Z,953.3
2022-11-01T20:03:43.887Z,955.8
2022-11-01T20:05:27.560Z,962
2022-11-01T20:07:11.257Z,970.7
2022-11-01T20:08:54.973Z,979.3
2022-11-01T20:10:38.624Z,981.8
2022-11-01T20:12:22.361Z,985.1
2022-11-01T20:14:06.132Z,989.4
2022-11-01T20:15:49.771Z,991.7
2022-11-01T20:17:33.472Z,999.4
2022-11-01T20:19:17.159Z,1003.3
2022-11-01T20:21:00.850Z,1006.8
2022-11-01T20:22:44.533Z,1009.3
2022-11-01T20:24:28.307Z,1017.2
2022-11-01T20:26:11.975Z,1022.5
2022-11-01T20:27:55.644Z,1022.1
2022-11-01T20:29:39.396Z,1023
2022-11-01T20:31:23.047Z,1025.9
2022-11-01T20:33:06.854Z,1027.6
2022-11-01T20:34:50.441Z,1030.5
2022-11-01T20:36:34.281Z,1034.4
2022-11-01T20:38:17.951Z,1039.3
2022-11-01T20:40:01.592Z,1042.3
2022-11-01T20:41:45.316Z,1041.4
2022-11-01T20:43:28.992Z,1043
2022-11-01T20:45:12.650Z,1041.6
2022-11-01T20:46:56.360Z,1041.7
2022-11-01T20:48:40.154Z,1044.1
2022-11-01T20:50:23.793Z,1047.6
2022-11-01T20:52:07.453Z,1051.4
2022-11-01T20:53:51.168Z,1055.1
2022-11-01T20:55:34.946Z,1057.5
2022-11-01T20:57:18.560Z,1060.5
2022-11-01T20:59:02.273Z,1061.5
2022-11-01T21:00:46.072Z,1059
2022-11-01T21:02:29.689Z,1059
2022-11-01T21:04:13.436Z,1057.9
2022-11-01T21:05:57.069Z,1056.2
2022-11-01T21:07:40.800Z,1051.8
2022-11-01T21:09:24.463Z,1048.1
2022-11-01T21:11:08.155Z,1046.9
2022-11-01T21:12:51.843Z,1044.1
2022-11-01T21:14:35.570Z,1040.1
2022-11-01T21:16:19.259Z,1038.9
2022-11-01T21:18:02.959Z,1037.8
2022-11-01T21:19:46.695Z,1032.2
2022-11-01T21:21:30.406Z,1023.2
2022-11-01T21:23:14.057Z,1016
2022-11-01T21:24:57.788Z,1013.8
2022-11-01T21:26:41.522Z,1014
2022-11-01T21:28:25.162Z,1016.9
2022-11-01T21:30:08.962Z,1020.7
2022-11-01T21:31:52.564Z,1022.5
2022-11-01T21:33:36.259Z,1025.6
2022-11-01T21:35:19.964Z,1036
2022-11-01T21:37:03.756Z,1046.3
2022-11-01T21:38:47.359Z,1054.2
2022-11-01T21:40:31.062Z,1060.5
2022-11-01T21:42:14.801Z,1065.9
2022-11-01T21:43:58.486Z,1077.5
2022-11-01T21:45:42.196Z,1086
2022-11-01T21:47:25.875Z,1095.1
2022-11-01T21:49:09.630Z,1105.9
2022-11-01T21:50:53.283Z,1112.1
2022-11-01T21:52:36.966Z,1123.7
2022-11-01T21:54:20.676Z,1134
2022-11-01T21:56:04.378Z,1137.9
2022-11-01T21:57:48.103Z,1141.2
2022-11-01T21:59:31.816Z,1150.8
2022-11-01T22:01:15.549Z,1155.7
2022-11-01T22:02:59.220Z,1162
2022-11-01T22:04:42.899Z,1170.1
2022-11-01T22:06:26.572Z,1180.7
2022-11-01T22:08:10.295Z,1192.1
2022-11-01T22:09:54.010Z,1192.7
2022-11-01T22:11:37.685Z,1198.6
2022-11-01T22:13:21.405Z,1201.5
2022-11-01T22:15:05.102Z,1200.6
2022-11-01T22:16:48.813Z,1194.8
2022-11-01T22:18:32.533Z,1193.7
2022-11-01T22:20:16.245Z,1195.3
2022-11-01T22:21:59.898Z,1200.9
2022-11-01T22:23:43.651Z,1209.4
2022-11-01T22:25:27.329Z,1217.8
2022-11-01T22:27:11.050Z,1222.1
2022-11-01T22:28:54.737Z,1228.2
2022-11-01T22:30:38.409Z,1228.1
2022-11-01T22:32:22.170Z,1225.3
2022-11-01T22:34:05.825Z,1231.1
2022-11-01T22:35:49.536Z,1233.6
2022-11-01T22:37:33.218Z,1229.7
2022-11-01T22:39:16.919Z,1228.5
2022-11-01T22:41:00.624Z,1231
2022-11-01T22:42:44.334Z,1233.5
2022-11-01T22:44:28.067Z,1235.8
2022-11-01T22:46:11.768Z,1241.6
2022-11-01T22:47:55.439Z,1243.8
2022-11-01T22:49:39.139Z,1243.5
2022-11-01T22:51:22.834Z,1240.5
2022-11-01T22:53:06.557Z,1240.2
2022-11-01T22:54:50.248Z,1244.3
2022-11-01T22:56:33.964Z,1247.8
2022-11-01T22:58:17.740Z,1248
2022-11-01T23:00:01.412Z,1249.5
2022-11-01T23:01:45.098Z,1250.3
2022-11-01T23:03:28.812Z,1250.4
2022-11-01T23:05:12.460Z,1245.7
2022-11-01T23:06:56.170Z,1246.6
2022-11-01T23:08:39.859Z,1250.8
2022-11-01T23:10:23.631Z,1253.5
2022-11-01T23:12:07.262Z,1235.5
2022-11-01T23:13:50.957Z,1204.1
2022-11-01T23:15:34.711Z,1172.4
2022-11-01T23:17:18.369Z,1147.6
2022-11-01T23:19:02.062Z,1145.6
2022-11-01T23:20:45.765Z,1139.4
2022-11-01T23:22:29.498Z,1131.2
2022-11-01T23:25:56.883Z,1105
2022-11-01T23:27:40.632Z,1100.1
2022-11-01T23:29:24.272Z,1094.8
2022-11-01T23:31:07.993Z,1088.4
2022-11-01T23:32:51.727Z,1081.5
2022-11-01T23:34:35.407Z,1079.8
2022-11-01T23:36:19.116Z,1078.5
2022-11-01T23:38:02.856Z,1073.3
2022-11-01T23:39:46.549Z,1067.3
2022-11-01T23:41:30.229Z,1067.1
2022-11-01T23:43:13.932Z,1060
2022-11-01T23:44:57.612Z,1059.7
2022-11-01T23:46:41.351Z,1054.4
2022-11-01T23:48:25.019Z,1049.9
2022-11-01T23:50:08.739Z,1044.7
2022-11-01T23:51:52.436Z,1041.2
2022-11-01T23:53:36.144Z,1035.2
2022-11-01T23:55:19.850Z,1033.9
2022-11-01T23:57:03.581Z,1030.9
2022-11-01T23:58:47.293Z,1021.6
